Time;durP1;ratioP1;P1;durP2;ratioP2;P2;SDS_P1;SDS_P2;PMS_P1;PMS_P2;Temp;Humidity;BMP_temperature;BMP_pressure;BME280_temperature;BME280_humidity;BME280_pressure;Samples;Min_cycle;Max_cycle;Signal;HPM_P1;HPM_P2
2022/01/14 00:00:55;;;;;;;;;;;2.10;99.90;;;;;;5057256;28;19924;-87
2022/01/14 00:03:23;;;;;;;;;;;1.80;99.90;;;;;;5056750;28;20323;-87
2022/01/14 00:05:51;;;;;;;;;;;2.10;99.90;;;;;;5081409;28;20303;-87
2022/01/14 00:08:19;;;;;;;;;;;2.10;99.90;;;;;;5063797;28;19928;-88
2022/01/14 00:10:50;;;;;;;;;;;2.70;99.90;;;;;;5064465;28;19924;-87
2022/01/14 00:16:07;;;;;;;;;;;2.10;99.90;;;;;;5048427;28;19929;-87
2022/01/14 00:18:34;;;;;;;;;;;2.20;99.90;;;;;;5045600;28;19928;-87
2022/01/14 00:21:02;;;;;;;;;;;2.10;99.90;;;;;;5046986;28;19931;-87
2022/01/14 00:23:37;;;;;;;;;;;2.80;99.90;;;;;;5048666;28;19929;-87
2022/01/14 00:31:54;;;;;;;;;;;2.00;99.90;;;;;;5051096;28;19951;-86
2022/01/14 00:34:22;;;;;;;;;;;1.90;99.90;;;;;;5077955;28;19931;-88
2022/01/14 00:36:50;;;;;;;;;;;2.00;99.90;;;;;;5054151;28;19943;-87
2022/01/14 00:39:18;;;;;;;;;;;1.80;99.90;;;;;;5053841;28;19924;-86
2022/01/14 00:41:45;;;;;;;;;;;2.00;99.90;;;;;;5053187;28;19928;-87
2022/01/14 00:44:14;;;;;;;;;;;2.30;99.90;;;;;;5053875;28;19924;-86
2022/01/14 00:46:43;;;;;;;;;;;2.20;99.90;;;;;;5052537;28;20547;-87
2022/01/14 00:49:11;;;;;;;;;;;0.90;99.90;;;;;;5069208;28;19928;-88
2022/01/14 00:51:38;;;;;;;;;;;2.00;99.90;;;;;;5052943;28;19923;-87
2022/01/14 00:54:06;;;;;;;;;;;2.20;99.90;;;;;;5035174;28;20682;-88
2022/01/14 00:56:47;;;;;;;;;;;1.90;99.90;;;;;;5055740;28;19934;-87
2022/01/14 00:59:16;;;;;;;;;;;2.00;99.90;;;;;;5077243;28;20378;-87
2022/01/14 01:01:45;;;;;;;;;;;1.80;99.90;;;;;;5052274;28;20328;-88
2022/01/14 01:04:14;;;;;;;;;;;1.80;99.90;;;;;;5048497;28;19947;-87
2022/01/14 01:06:42;;;;;;;;;;;1.80;99.90;;;;;;5016265;28;20356;-86
2022/01/14 01:09:11;;;;;;;;;;;2.40;99.90;;;;;;5031377;28;19924;-86
2022/01/14 01:11:49;;;;;;;;;;;2.10;99.90;;;;;;5049639;28;19936;-87
2022/01/14 01:14:22;;;;;;;;;;;1.80;99.90;;;;;;5032620;28;19935;-88
2022/01/14 01:16:49;;;;;;;;;;;1.80;99.90;;;;;;5036724;28;19925;-86
2022/01/14 01:19:17;;;;;;;;;;;1.50;99.90;;;;;;5052511;28;19935;-88
2022/01/14 01:21:44;;;;;;;;;;;2.00;99.90;;;;;;5055882;28;19943;-86
2022/01/14 01:24:14;;;;;;;;;;;1.80;99.90;;;;;;5049376;28;19933;-86
2022/01/14 01:26:42;;;;;;;;;;;1.80;99.90;;;;;;5040948;28;19928;-86
2022/01/14 01:31:39;;;;;;;;;;;1.70;99.90;;;;;;5052617;28;19927;-87
2022/01/14 01:34:09;;;;;;;;;;;1.70;99.90;;;;;;5035765;28;19924;-86
2022/01/14 01:36:37;;;;;;;;;;;1.80;99.90;;;;;;5054692;28;19939;-87
2022/01/14 01:39:07;;;;;;;;;;;1.70;99.90;;;;;;5053782;28;19928;-86
2022/01/14 01:41:35;;;;;;;;;;;2.20;99.90;;;;;;5053310;28;19928;-88
2022/01/14 01:44:06;;;;;;;;;;;1.20;99.90;;;;;;5054833;28;19925;-90
2022/01/14 01:46:34;;;;;;;;;;;1.50;99.90;;;;;;5072267;28;19924;-88
2022/01/14 01:49:02;;;;;;;;;;;1.90;99.90;;;;;;5053495;28;20406;-86
2022/01/14 01:51:29;;;;;;;;;;;1.30;99.90;;;;;;5051800;28;19928;-86
2022/01/14 01:53:57;;;;;;;;;;;1.60;99.90;;;;;;5052182;28;19935;-88
2022/01/14 01:56:24;;;;;;;;;;;1.70;99.90;;;;;;5053104;28;19935;-87
2022/01/14 01:58:53;;;;;;;;;;;2.20;99.90;;;;;;5091008;28;19928;-89
2022/01/14 02:01:20;;;;;;;;;;;1.60;99.90;;;;;;5039009;28;19936;-87
2022/01/14 02:03:48;;;;;;;;;;;1.40;99.90;;;;;;5054336;28;19932;-89
2022/01/14 02:06:17;;;;;;;;;;;1.50;99.90;;;;;;5078079;28;19994;-91
2022/01/14 02:08:45;;;;;;;;;;;1.50;99.90;;;;;;5078313;28;19935;-88
2022/01/14 02:11:12;;;;;;;;;;;1.50;99.90;;;;;;5094714;28;19924;-90
2022/01/14 02:13:40;;;;;;;;;;;1.50;99.90;;;;;;5079450;28;19928;-87
2022/01/14 02:24:21;;;;;;;;;;;1.50;99.90;;;;;;5060858;28;19946;-87
2022/01/14 02:26:50;;;;;;;;;;;1.50;99.90;;;;;;5055863;28;19928;-86
2022/01/14 02:29:18;;;;;;;;;;;3.00;99.90;;;;;;5084676;28;19931;-87
2022/01/14 02:31:46;;;;;;;;;;;1.40;99.90;;;;;;5055170;28;19924;-87
2022/01/14 02:34:14;;;;;;;;;;;1.00;99.90;;;;;;5056945;28;19935;-88
2022/01/14 02:36:43;;;;;;;;;;;1.40;99.90;;;;;;5035644;28;19928;-88
2022/01/14 02:39:11;;;;;;;;;;;1.40;99.90;;;;;;5052738;28;20291;-88
2022/01/14 02:41:40;;;;;;;;;;;2.30;99.90;;;;;;5036046;28;20124;-87
2022/01/14 02:44:09;;;;;;;;;;;1.30;99.90;;;;;;5066227;28;19924;-86
2022/01/14 02:46:41;;;;;;;;;;;0.50;99.90;;;;;;5073972;28;20556;-86
2022/01/14 02:49:09;;;;;;;;;;;1.30;99.90;;;;;;5037889;28;19943;-87
2022/01/14 02:51:36;;;;;;;;;;;2.40;99.90;;;;;;5054485;28;20383;-87
2022/01/14 02:54:15;;;;;;;;;;;1.80;99.90;;;;;;5041138;28;20033;-86
2022/01/14 02:56:43;;;;;;;;;;;1.40;99.90;;;;;;5073902;28;19935;-87
2022/01/14 02:59:11;;;;;;;;;;;1.30;99.90;;;;;;5052812;28;20406;-87
2022/01/14 03:01:38;;;;;;;;;;;1.80;99.90;;;;;;5050737;28;19939;-86
2022/01/14 03:04:07;;;;;;;;;;;1.00;99.90;;;;;;5067713;28;20445;-89
2022/01/14 03:06:35;;;;;;;;;;;2.60;99.90;;;;;;5091568;28;19928;-86
2022/01/14 03:09:04;;;;;;;;;;;1.10;99.90;;;;;;5074190;28;20367;-86
2022/01/14 03:11:37;;;;;;;;;;;1.20;99.90;;;;;;5077312;28;19928;-86
2022/01/14 03:14:05;;;;;;;;;;;1.40;99.90;;;;;;4702209;28;10000368;-86
2022/01/14 03:16:39;;;;;;;;;;;1.20;99.90;;;;;;5017550;28;19935;-87
2022/01/14 03:19:14;;;;;;;;;;;1.20;99.90;;;;;;5050225;28;19925;-87
2022/01/14 03:21:42;;;;;;;;;;;1.20;99.90;;;;;;5073070;28;19925;-87
2022/01/14 03:25:35;;;;;;;;;;;1.20;99.90;;;;;;5055013;28;20494;-87
2022/01/14 03:27:11;;;;;;;;;;;1.20;99.90;;;;;;5068355;28;19928;-87
2022/01/14 03:29:38;;;;;;;;;;;0.60;99.90;;;;;;5046655;28;19925;-87
2022/01/14 03:32:06;;;;;;;;;;;1.00;99.90;;;;;;5071206;28;19932;-87
2022/01/14 03:34:34;;;;;;;;;;;0.70;99.90;;;;;;5062481;28;19931;-88
2022/01/14 03:37:02;;;;;;;;;;;1.10;99.90;;;;;;5074558;28;19927;-87
2022/01/14 03:39:29;;;;;;;;;;;1.10;99.90;;;;;;5075061;28;19942;-87
2022/01/14 03:41:57;;;;;;;;;;;1.50;99.90;;;;;;5057168;28;20123;-86
2022/01/14 03:44:24;;;;;;;;;;;1.00;99.90;;;;;;5038515;28;19935;-85
2022/01/14 03:46:52;;;;;;;;;;;0.70;99.90;;;;;;5070349;28;20303;-86
2022/01/14 03:49:19;;;;;;;;;;;1.00;99.90;;;;;;5050459;28;19940;-86
2022/01/14 03:51:47;;;;;;;;;;;1.00;99.90;;;;;;5050185;28;19925;-86
2022/01/14 03:54:14;;;;;;;;;;;1.10;99.90;;;;;;5055290;28;19932;-86
2022/01/14 03:56:41;;;;;;;;;;;0.80;99.90;;;;;;5058759;28;20391;-87
2022/01/14 03:59:09;;;;;;;;;;;1.00;99.90;;;;;;5067756;28;19928;-86
2022/01/14 04:01:36;;;;;;;;;;;1.10;99.90;;;;;;5053351;28;19924;-86
2022/01/14 04:04:04;;;;;;;;;;;1.10;99.90;;;;;;5040148;28;20303;-86
2022/01/14 04:06:32;;;;;;;;;;;1.50;99.90;;;;;;5081774;28;20501;-86
2022/01/14 04:08:59;;;;;;;;;;;1.00;99.90;;;;;;5070755;28;19935;-87
2022/01/14 04:11:29;;;;;;;;;;;1.10;99.90;;;;;;5070212;28;19928;-86
2022/01/14 04:14:07;;;;;;;;;;;1.10;99.90;;;;;;5053085;28;19932;-86
2022/01/14 04:16:36;;;;;;;;;;;1.10;99.90;;;;;;5053166;28;20414;-87
2022/01/14 04:19:03;;;;;;;;;;;1.10;99.90;;;;;;5052315;28;19928;-86
2022/01/14 04:21:30;;;;;;;;;;;1.10;99.90;;;;;;5050064;28;19925;-86
2022/01/14 04:23:58;;;;;;;;;;;1.10;99.90;;;;;;5052945;28;19932;-86
2022/01/14 04:26:25;;;;;;;;;;;1.10;99.90;;;;;;5073321;28;20267;-87
2022/01/14 04:28:53;;;;;;;;;;;1.30;99.90;;;;;;5088007;28;19946;-85
2022/01/14 04:31:20;;;;;;;;;;;1.10;99.90;;;;;;5033018;28;19925;-87
2022/01/14 04:33:48;;;;;;;;;;;0.50;99.90;;;;;;5032868;28;19924;-87
2022/01/14 04:36:15;;;;;;;;;;;2.50;99.90;;;;;;5049181;28;19932;-86
2022/01/14 04:38:43;;;;;;;;;;;1.20;99.90;;;;;;5044368;28;19928;-87
2022/01/14 04:41:10;;;;;;;;;;;0.30;99.90;;;;;;5032298;28;19935;-88
2022/01/14 04:43:37;;;;;;;;;;;1.90;99.90;;;;;;5052046;28;19925;-86
2022/01/14 04:48:34;;;;;;;;;;;1.10;99.90;;;;;;5059541;28;19925;-87
2022/01/14 04:51:02;;;;;;;;;;;1.30;99.90;;;;;;5032133;28;20307;-86
2022/01/14 04:53:30;;;;;;;;;;;1.30;99.90;;;;;;5032118;28;19929;-87
2022/01/14 04:55:57;;;;;;;;;;;1.30;99.90;;;;;;5068433;28;19931;-86
2022/01/14 04:58:25;;;;;;;;;;;1.40;99.90;;;;;;5075742;28;19928;-86
2022/01/14 05:00:53;;;;;;;;;;;1.90;99.90;;;;;;5068685;28;19925;-87
2022/01/14 05:03:21;;;;;;;;;;;2.80;99.90;;;;;;5068385;28;19925;-88
2022/01/14 05:05:52;;;;;;;;;;;1.40;99.90;;;;;;5088732;28;19924;-87
2022/01/14 05:08:24;;;;;;;;;;;1.60;99.90;;;;;;5060642;28;19935;-86
2022/01/14 05:13:20;;;;;;;;;;;2.70;99.90;;;;;;5096683;28;19935;-86
2022/01/14 05:15:48;;;;;;;;;;;1.50;99.90;;;;;;4748702;28;10000070;-87
2022/01/14 05:18:16;;;;;;;;;;;1.40;99.90;;;;;;5031716;28;19925;-87
2022/01/14 05:20:43;;;;;;;;;;;1.40;99.90;;;;;;5032347;28;19924;-86
2022/01/14 05:23:11;;;;;;;;;;;1.30;99.90;;;;;;5032292;28;19925;-88
2022/01/14 05:25:38;;;;;;;;;;;2.20;99.90;;;;;;5064546;28;19928;-86
2022/01/14 05:28:05;;;;;;;;;;;1.50;99.90;;;;;;5073892;28;19925;-88
2022/01/14 05:30:33;;;;;;;;;;;2.30;99.90;;;;;;5069017;28;19924;-86
2022/01/14 05:33:01;;;;;;;;;;;1.20;99.90;;;;;;5032178;28;19936;-87
2022/01/14 05:35:29;;;;;;;;;;;1.20;99.90;;;;;;5062257;28;19931;-86
2022/01/14 05:37:56;;;;;;;;;;;1.50;99.90;;;;;;5071195;28;19930;-86
2022/01/14 05:40:26;;;;;;;;;;;1.50;99.90;;;;;;5069895;28;19925;-89
2022/01/14 05:42:53;;;;;;;;;;;1.20;99.90;;;;;;5076328;28;19935;-87
2022/01/14 05:45:21;;;;;;;;;;;1.10;99.90;;;;;;5090562;28;19935;-89
2022/01/14 05:47:48;;;;;;;;;;;1.10;99.90;;;;;;5093192;28;19924;-87
2022/01/14 05:50:17;;;;;;;;;;;2.60;99.90;;;;;;5074919;28;19921;-85
2022/01/14 05:52:44;;;;;;;;;;;1.00;99.90;;;;;;5075020;28;19932;-87
2022/01/14 05:55:14;;;;;;;;;;;1.40;99.90;;;;;;5091495;28;19935;-86
2022/01/14 05:57:43;;;;;;;;;;;1.00;99.90;;;;;;5104673;28;19932;-85
2022/01/14 06:00:12;;;;;;;;;;;1.00;99.90;;;;;;5071478;28;19928;-85
2022/01/14 06:02:46;;;;;;;;;;;-0.10;99.90;;;;;;5092138;28;19923;-87
2022/01/14 06:05:14;;;;;;;;;;;1.30;99.90;;;;;;5095141;28;19924;-89
2022/01/14 06:07:42;;;;;;;;;;;0.90;99.90;;;;;;5063158;28;19924;-87
2022/01/14 06:10:10;;;;;;;;;;;0.90;99.90;;;;;;5066796;28;19935;-88
2022/01/14 06:12:38;;;;;;;;;;;0.90;99.90;;;;;;5077781;28;20256;-87
2022/01/14 06:15:05;;;;;;;;;;;0.90;99.90;;;;;;5080114;28;19924;-85
2022/01/14 06:17:33;;;;;;;;;;;1.00;99.90;;;;;;5061224;28;19931;-87
2022/01/14 06:20:00;;;;;;;;;;;1.10;99.90;;;;;;5092900;28;19943;-86
2022/01/14 06:22:28;;;;;;;;;;;1.50;99.90;;;;;;5076266;28;19939;-86
2022/01/14 06:24:57;;;;;;;;;;;0.90;99.90;;;;;;5051657;28;19935;-86
2022/01/14 06:27:24;;;;;;;;;;;0.90;99.90;;;;;;5066002;28;20011;-88
2022/01/14 06:29:52;;;;;;;;;;;0.40;99.90;;;;;;5044061;28;19936;-86
2022/01/14 06:32:19;;;;;;;;;;;2.50;99.90;;;;;;5030611;28;19925;-87
2022/01/14 06:34:46;;;;;;;;;;;0.80;99.90;;;;;;5048949;28;20311;-86
2022/01/14 06:37:16;;;;;;;;;;;0.80;99.90;;;;;;5048738;28;19924;-88
2022/01/14 06:39:43;;;;;;;;;;;0.80;99.90;;;;;;5067199;28;19948;-86
2022/01/14 06:42:11;;;;;;;;;;;2.00;99.90;;;;;;5032437;28;19932;-87
2022/01/14 06:44:38;;;;;;;;;;;0.20;99.90;;;;;;5065603;28;19929;-86
2022/01/14 06:47:06;;;;;;;;;;;0.80;99.90;;;;;;5047779;28;19940;-86
2022/01/14 06:49:33;;;;;;;;;;;0.80;99.90;;;;;;5030643;28;19931;-87
2022/01/14 06:52:02;;;;;;;;;;;1.40;99.90;;;;;;5045927;28;19929;-86
2022/01/14 06:54:29;;;;;;;;;;;0.60;99.90;;;;;;5027962;28;19928;-86
2022/01/14 06:56:57;;;;;;;;;;;0.80;99.90;;;;;;5037233;28;19929;-86
2022/01/14 06:59:24;;;;;;;;;;;0.80;99.90;;;;;;5041785;28;20114;-86
2022/01/14 07:01:53;;;;;;;;;;;0.80;99.90;;;;;;5061678;28;19955;-88
2022/01/14 07:04:21;;;;;;;;;;;0.80;99.90;;;;;;5039703;28;19932;-87
2022/01/14 07:06:48;;;;;;;;;;;2.20;99.90;;;;;;5042275;28;19929;-86
2022/01/14 07:09:15;;;;;;;;;;;0.80;99.90;;;;;;5047509;28;19924;-86
2022/01/14 07:11:47;;;;;;;;;;;0.80;99.90;;;;;;5043058;28;19932;-87
2022/01/14 07:14:15;;;;;;;;;;;0.80;99.90;;;;;;5040474;28;19928;-86
2022/01/14 07:16:42;;;;;;;;;;;1.00;99.90;;;;;;5054679;28;20261;-87
2022/01/14 07:19:10;;;;;;;;;;;1.00;99.90;;;;;;5072978;28;20352;-86
2022/01/14 07:21:39;;;;;;;;;;;0.70;99.90;;;;;;5046920;28;19925;-86
2022/01/14 07:24:06;;;;;;;;;;;0.60;99.90;;;;;;5051368;28;19939;-87
2022/01/14 07:26:34;;;;;;;;;;;0.70;99.90;;;;;;5070150;28;19931;-86
2022/01/14 07:29:02;;;;;;;;;;;0.70;99.90;;;;;;5072355;28;19928;-88
2022/01/14 07:31:31;;;;;;;;;;;0.40;99.90;;;;;;5046731;28;19929;-87
2022/01/14 07:38:01;;;;;;;;;;;0.70;99.90;;;;;;5150172;22;19938;-81
2022/01/14 07:40:39;;;;;;;;;;;1.70;99.90;;;;;;5063541;28;20412;-84
2022/01/14 07:43:29;;;;;;;;;;;0.60;99.90;;;;;;5062125;28;19939;-82
2022/01/14 07:46:00;;;;;;;;;;;0.60;99.90;;;;;;5071424;28;20243;-82
2022/01/14 07:48:29;;;;;;;;;;;0.60;99.90;;;;;;5063915;28;19928;-81
2022/01/14 08:04:40;;;;;;;;;;;0.80;99.90;;;;;;5036503;22;19941;-90
2022/01/14 08:07:12;;;;;;;;;;;0.30;99.90;;;;;;5051626;28;19928;-90
2022/01/14 08:09:42;;;;;;;;;;;0.80;99.90;;;;;;5032669;28;19940;-90
2022/01/14 08:12:12;;;;;;;;;;;0.80;99.90;;;;;;5047859;28;19928;-89
2022/01/14 08:14:42;;;;;;;;;;;0.80;99.90;;;;;;5064508;28;19932;-89
2022/01/14 08:17:16;;;;;;;;;;;0.90;99.90;;;;;;5029216;28;19928;-90
2022/01/14 08:19:57;;;;;;;;;;;1.10;99.90;;;;;;5065910;28;19935;-88
2022/01/14 08:22:28;;;;;;;;;;;0.90;99.90;;;;;;5038326;28;19930;-89
2022/01/14 08:51:58;;;;;;;;;;;1.30;99.90;;;;;;4963124;28;19912;-80
2022/01/14 08:54:27;;;;;;;;;;;1.40;99.90;;;;;;5039704;28;19925;-82
2022/01/14 08:57:02;;;;;;;;;;;1.30;99.90;;;;;;5066862;28;19946;-81
2022/01/14 08:59:42;;;;;;;;;;;1.20;99.90;;;;;;5030458;28;19925;-83
2022/01/14 09:02:33;;;;;;;;;;;1.40;99.90;;;;;;5080441;28;19932;-81
2022/01/14 09:05:13;;;;;;;;;;;1.50;99.90;;;;;;5100605;28;19928;-81
2022/01/14 09:07:52;;;;;;;;;;;1.50;99.90;;;;;;5086545;28;19924;-82
2022/01/14 09:10:20;;;;;;;;;;;1.70;99.90;;;;;;5082304;28;19928;-82
2022/01/14 09:13:17;;;;;;;;;;;;;;;;;;;;;
2022/01/14 09:16:24;;;;;;;;;;;;;;;;;;;;;
2022/01/14 09:19:44;;;;;;;;;;;1.60;99.90;;;;;;5003675;28;19925;-81
2022/01/14 09:54:10;;;;;;;;;;;;;;;;;;;;;
2022/01/14 10:01:15;;;;;;;;;;;2.90;99.90;;;;;;5061746;28;19925;-88
2022/01/14 10:19:36;;;;;;;;;;;3.20;99.90;;;;;;5053441;27;19958;-87
2022/01/14 10:22:28;;;;;;;;;;;3.30;99.90;;;;;;5047245;28;19924;-86
2022/01/14 10:56:49;;;;;;;;;;;4.70;99.90;;;;;;4937326;28;19926;-84
2022/01/14 11:13:17;;;;;;;;;;;;;;;;;;;;;
2022/01/14 11:29:51;;;;;;;;;;;4.90;99.90;;;;;;4707149;30;19926;-86
2022/01/14 11:33:23;;;;;;;;;;;5.20;99.90;;;;;;4839874;22;19928;-85
2022/01/14 11:37:41;;;;;;;;;;;5.30;99.90;;;;;;5097445;28;19928;-85
2022/01/14 11:54:36;;;;;;;;;;;6.80;99.90;;;;;;4859865;29;19932;-85
2022/01/14 12:05:30;;;;;;;;;;;6.10;99.90;;;;;;5112795;22;19922;-89
2022/01/14 12:08:42;;;;;;;;;;;6.20;99.90;;;;;;5079523;28;20393;-85
2022/01/14 12:11:24;;;;;;;;;;;6.30;99.90;;;;;;5143245;23;19934;-84
2022/01/14 12:14:01;;;;;;;;;;;6.60;99.90;;;;;;5075766;28;19928;-88
2022/01/14 12:19:32;;;;;;;;;;;6.80;99.90;;;;;;5092758;23;19919;-88
2022/01/14 12:22:10;;;;;;;;;;;7.10;99.90;;;;;;5080686;22;19912;-82
2022/01/14 12:24:39;;;;;;;;;;;7.10;99.90;;;;;;5102755;28;19930;-82
2022/01/14 12:27:08;;;;;;;;;;;7.30;99.90;;;;;;5088484;28;20305;-83
2022/01/14 12:29:36;;;;;;;;;;;7.40;99.90;;;;;;5086784;28;19932;-82
2022/01/14 12:32:07;;;;;;;;;;;7.60;99.90;;;;;;5087401;28;19932;-83
2022/01/14 12:34:39;;;;;;;;;;;7.80;99.90;;;;;;5084075;28;19924;-81
2022/01/14 12:37:08;;;;;;;;;;;8.10;99.90;;;;;;5085767;28;19939;-83
2022/01/14 12:39:37;;;;;;;;;;;8.70;99.90;;;;;;5085518;28;19932;-81
2022/01/14 12:42:06;;;;;;;;;;;8.20;99.90;;;;;;5085922;28;19931;-81
2022/01/14 12:44:38;;;;;;;;;;;8.40;99.90;;;;;;5112948;28;19930;-84
2022/01/14 12:47:08;;;;;;;;;;;8.40;99.90;;;;;;5069310;28;19932;-81
2022/01/14 12:49:37;;;;;;;;;;;8.60;99.90;;;;;;5050014;28;19935;-81
2022/01/14 12:52:05;;;;;;;;;;;8.60;99.90;;;;;;5048542;28;19939;-82
2022/01/14 12:54:35;;;;;;;;;;;8.70;99.90;;;;;;5100637;28;19924;-82
2022/01/14 12:57:05;;;;;;;;;;;8.80;99.90;;;;;;5063941;28;19924;-83
2022/01/14 12:59:40;;;;;;;;;;;8.90;99.90;;;;;;5073803;28;19924;-84
2022/01/14 13:02:10;;;;;;;;;;;8.80;99.90;;;;;;5068813;28;19924;-82
2022/01/14 13:04:38;;;;;;;;;;;9.20;99.90;;;;;;5101804;28;19924;-81
2022/01/14 13:07:08;;;;;;;;;;;9.10;99.90;;;;;;5102992;28;19924;-82
2022/01/14 13:09:40;;;;;;;;;;;9.20;99.90;;;;;;5101838;28;19932;-83
2022/01/14 13:12:13;;;;;;;;;;;9.30;99.90;;;;;;5102088;28;19924;-83
2022/01/14 13:14:46;;;;;;;;;;;9.10;99.90;;;;;;5102044;28;19925;-86
2022/01/14 13:18:03;;;;;;;;;;;9.40;99.90;;;;;;5089440;28;19935;-82
2022/01/14 13:20:35;;;;;;;;;;;9.80;99.90;;;;;;5084434;28;20304;-82
2022/01/14 13:23:07;;;;;;;;;;;7.90;99.90;;;;;;5079987;28;19924;-81
2022/01/14 13:25:36;;;;;;;;;;;9.50;99.90;;;;;;5065841;28;20925;-83
2022/01/14 13:28:04;;;;;;;;;;;9.40;99.90;;;;;;5072986;28;19936;-81
2022/01/14 13:30:39;;;;;;;;;;;9.60;99.90;;;;;;5083089;28;19912;-82
2022/01/14 13:33:10;;;;;;;;;;;9.50;99.90;;;;;;5068330;28;19934;-81
2022/01/14 13:35:42;;;;;;;;;;;9.50;99.90;;;;;;5106343;28;19912;-80
2022/01/14 13:38:14;;;;;;;;;;;9.50;99.90;;;;;;5081514;28;19924;-83
2022/01/14 13:40:53;;;;;;;;;;;9.40;99.90;;;;;;5100839;28;19924;-82
2022/01/14 13:43:29;;;;;;;;;;;9.60;99.90;;;;;;5107811;28;19927;-81
2022/01/14 13:46:39;;;;;;;;;;;11.60;99.90;;;;;;5081947;28;19928;-84
2022/01/14 14:01:15;;;;;;;;;;;8.60;99.90;;;;;;5010307;28;19925;-85
2022/01/14 14:04:25;;;;;;;;;;;;;;;;;;;;;
2022/01/14 14:07:39;;;;;;;;;;;;;;;;;;;;;
2022/01/14 14:18:14;;;;;;;;;;;10.90;99.90;;;;;;5031441;28;19931;-84
2022/01/14 14:26:00;;;;;;;;;;;10.50;99.90;;;;;;4965340;28;19933;-84
2022/01/14 14:29:29;;;;;;;;;;;10.50;99.90;;;;;;4977381;28;19934;-83
2022/01/14 14:32:25;;;;;;;;;;;8.80;99.90;;;;;;4942490;28;19930;-82
2022/01/14 14:38:08;;;;;;;;;;;10.20;99.90;;;;;;5179961;22;19938;-86
2022/01/14 14:52:06;;;;;;;;;;;9.50;99.90;;;;;;5235867;22;19935;-85
2022/01/14 14:59:24;;;;;;;;;;;9.30;99.90;;;;;;5419954;22;20969;-85
2022/01/14 15:14:28;;;;;;;;;;;8.80;99.90;;;;;;5270221;22;19925;-88
2022/01/14 15:19:32;;;;;;;;;;;8.80;99.90;;;;;;5059079;28;20442;-86
2022/01/14 15:22:00;;;;;;;;;;;8.90;99.90;;;;;;5032521;28;20307;-86
2022/01/14 15:24:33;;;;;;;;;;;9.00;99.90;;;;;;4692917;28;9999662;-86
2022/01/14 15:27:00;;;;;;;;;;;9.00;99.90;;;;;;5059302;28;20387;-86
2022/01/14 15:29:28;;;;;;;;;;;9.00;99.90;;;;;;5076236;28;19928;-86
2022/01/14 15:31:56;;;;;;;;;;;8.90;99.90;;;;;;5054413;28;19939;-86
2022/01/14 15:34:23;;;;;;;;;;;8.90;99.90;;;;;;5077286;28;20078;-87
2022/01/14 15:36:51;;;;;;;;;;;8.80;99.90;;;;;;5037257;28;19935;-86
2022/01/14 15:39:19;;;;;;;;;;;8.70;99.90;;;;;;5059395;28;19932;-85
2022/01/14 15:41:47;;;;;;;;;;;8.60;99.90;;;;;;5049489;28;19936;-86
2022/01/14 15:44:15;;;;;;;;;;;8.60;99.90;;;;;;5047185;28;19936;-86
2022/01/14 15:46:43;;;;;;;;;;;8.50;99.90;;;;;;5060973;28;19924;-86
2022/01/14 15:49:31;;;;;;;;;;;8.40;99.90;;;;;;5051157;28;19943;-85
2022/01/14 15:51:58;;;;;;;;;;;8.30;99.90;;;;;;5059069;28;19924;-86
2022/01/14 15:54:26;;;;;;;;;;;8.20;99.90;;;;;;5033700;28;19933;-85
2022/01/14 15:56:54;;;;;;;;;;;8.20;99.90;;;;;;5027925;28;19934;-86
2022/01/14 15:59:21;;;;;;;;;;;8.20;99.90;;;;;;5067519;28;19948;-85
2022/01/14 16:01:52;;;;;;;;;;;8.00;99.90;;;;;;5033508;28;19932;-85
2022/01/14 16:04:20;;;;;;;;;;;8.90;99.90;;;;;;5052890;28;19928;-88
2022/01/14 16:06:49;;;;;;;;;;;7.90;99.90;;;;;;5014511;28;20532;-84
2022/01/14 16:09:16;;;;;;;;;;;8.00;99.90;;;;;;5031550;28;19925;-85
2022/01/14 16:12:03;;;;;;;;;;;7.70;99.90;;;;;;5031734;28;21202;-85
2022/01/14 16:14:32;;;;;;;;;;;7.60;99.90;;;;;;5029722;28;19932;-85
2022/01/14 16:17:01;;;;;;;;;;;7.60;99.90;;;;;;5030900;28;20296;-86
2022/01/14 16:19:29;;;;;;;;;;;7.50;99.90;;;;;;5047989;28;19924;-86
2022/01/14 16:21:56;;;;;;;;;;;7.40;99.90;;;;;;5028653;28;19943;-88
2022/01/14 16:24:24;;;;;;;;;;;7.30;99.90;;;;;;5030758;28;20308;-86
2022/01/14 16:26:51;;;;;;;;;;;6.20;99.90;;;;;;5031979;28;19931;-85
2022/01/14 16:29:19;;;;;;;;;;;7.10;99.90;;;;;;5033876;28;19932;-86
2022/01/14 16:31:47;;;;;;;;;;;7.00;99.90;;;;;;5030786;28;20399;-87
2022/01/14 16:34:14;;;;;;;;;;;6.90;99.90;;;;;;5018188;28;19936;-86
2022/01/14 16:36:42;;;;;;;;;;;6.90;99.90;;;;;;5058947;28;19933;-84
2022/01/14 16:39:09;;;;;;;;;;;6.80;99.90;;;;;;5051721;28;19925;-87
2022/01/14 16:41:37;;;;;;;;;;;6.70;99.90;;;;;;5064306;28;20280;-87
2022/01/14 16:44:05;;;;;;;;;;;6.70;99.90;;;;;;5042746;28;19928;-89
2022/01/14 16:46:35;;;;;;;;;;;6.60;99.90;;;;;;5023141;28;19932;-88
2022/01/14 16:49:03;;;;;;;;;;;6.50;99.90;;;;;;5035074;28;20317;-87
2022/01/14 16:51:33;;;;;;;;;;;6.30;99.90;;;;;;5031249;28;20435;-88
2022/01/14 16:54:01;;;;;;;;;;;6.30;99.90;;;;;;5051073;28;19940;-89
2022/01/14 16:56:29;;;;;;;;;;;5.30;99.90;;;;;;5014577;28;19928;-85
2022/01/14 16:58:56;;;;;;;;;;;6.10;99.90;;;;;;5017006;28;19928;-87
2022/01/14 17:01:24;;;;;;;;;;;5.70;99.90;;;;;;5035009;28;19924;-88
2022/01/14 17:03:52;;;;;;;;;;;5.90;99.90;;;;;;5041258;28;19992;-85
2022/01/14 17:06:21;;;;;;;;;;;5.90;99.90;;;;;;5074221;28;19932;-87
2022/01/14 17:08:51;;;;;;;;;;;5.80;99.90;;;;;;5024625;28;20104;-84
2022/01/14 17:11:28;;;;;;;;;;;5.90;99.90;;;;;;5040638;28;19932;-88
2022/01/14 17:14:06;;;;;;;;;;;5.60;99.90;;;;;;5043543;28;19936;-88
2022/01/14 17:16:38;;;;;;;;;;;5.50;99.90;;;;;;5038297;28;19951;-87
2022/01/14 17:19:11;;;;;;;;;;;5.10;99.90;;;;;;5020742;28;19917;-87
2022/01/14 17:21:39;;;;;;;;;;;5.60;99.90;;;;;;5017114;28;19933;-89
2022/01/14 17:24:09;;;;;;;;;;;5.30;99.90;;;;;;5016446;28;19929;-89
2022/01/14 17:26:37;;;;;;;;;;;5.30;99.90;;;;;;5013116;28;19932;-88
2022/01/14 17:29:04;;;;;;;;;;;5.30;99.90;;;;;;4995971;28;19925;-88
2022/01/14 17:31:36;;;;;;;;;;;5.20;99.90;;;;;;4997445;28;19935;-88
2022/01/14 17:34:04;;;;;;;;;;;5.10;99.90;;;;;;5030658;28;19932;-88
2022/01/14 17:36:33;;;;;;;;;;;5.10;99.90;;;;;;5020785;28;20541;-86
2022/01/14 17:39:03;;;;;;;;;;;5.00;99.90;;;;;;5034784;28;19933;-89
2022/01/14 17:41:31;;;;;;;;;;;4.70;99.90;;;;;;5001497;28;19935;-89
2022/01/14 17:44:00;;;;;;;;;;;5.00;99.90;;;;;;5019890;28;20020;-89
2022/01/14 17:46:32;;;;;;;;;;;4.20;99.90;;;;;;5003657;28;19932;-89
2022/01/14 17:49:01;;;;;;;;;;;4.70;99.90;;;;;;5007243;28;19925;-87
2022/01/14 17:51:31;;;;;;;;;;;4.70;99.90;;;;;;5016622;28;19925;-89
2022/01/14 17:53:59;;;;;;;;;;;4.70;99.90;;;;;;5004083;28;19929;-89
2022/01/14 17:56:28;;;;;;;;;;;4.60;99.90;;;;;;5002078;28;19944;-88
2022/01/14 17:58:59;;;;;;;;;;;4.60;99.90;;;;;;5015305;28;19936;-88
2022/01/14 18:01:30;;;;;;;;;;;4.50;99.90;;;;;;5015309;28;22163;-87
2022/01/14 18:03:58;;;;;;;;;;;4.40;99.90;;;;;;5016917;28;19935;-88
2022/01/14 18:06:26;;;;;;;;;;;4.30;99.90;;;;;;5026032;28;19929;-88
2022/01/14 18:08:55;;;;;;;;;;;4.10;99.90;;;;;;5011442;28;19947;-88
2022/01/14 18:11:30;;;;;;;;;;;4.70;99.90;;;;;;4995686;28;19954;-87
2022/01/14 18:16:56;;;;;;;;;;;4.20;99.90;;;;;;4998555;28;19929;-88
2022/01/14 18:19:24;;;;;;;;;;;3.40;99.90;;;;;;5015820;28;20001;-88
2022/01/14 18:21:52;;;;;;;;;;;4.10;99.90;;;;;;5020099;28;19928;-87
2022/01/14 18:24:19;;;;;;;;;;;4.10;99.90;;;;;;5011025;28;19940;-87
2022/01/14 18:26:47;;;;;;;;;;;4.10;99.90;;;;;;5005609;28;19925;-87
2022/01/14 18:29:18;;;;;;;;;;;4.10;99.90;;;;;;5016870;28;19947;-88
2022/01/14 18:31:46;;;;;;;;;;;4.60;99.90;;;;;;5041173;28;19936;-87
2022/01/14 18:34:19;;;;;;;;;;;4.00;99.90;;;;;;5035674;28;19926;-89
2022/01/14 18:37:00;;;;;;;;;;;4.00;99.90;;;;;;5031324;28;19925;-87
2022/01/14 18:39:28;;;;;;;;;;;4.00;99.90;;;;;;5011105;28;19928;-87
2022/01/14 18:41:56;;;;;;;;;;;4.00;99.90;;;;;;5007602;28;21184;-88
2022/01/14 18:44:25;;;;;;;;;;;4.30;99.90;;;;;;4994346;28;19947;-86
2022/01/14 18:46:52;;;;;;;;;;;3.90;99.90;;;;;;5013492;28;20308;-86
2022/01/14 18:49:20;;;;;;;;;;;3.90;99.90;;;;;;5028537;28;19948;-88
2022/01/14 18:51:49;;;;;;;;;;;3.80;99.90;;;;;;4997402;28;19955;-88
2022/01/14 18:54:17;;;;;;;;;;;2.90;99.90;;;;;;5012006;28;20277;-88
2022/01/14 18:56:44;;;;;;;;;;;4.00;99.90;;;;;;4997756;28;19925;-87
2022/01/14 18:59:12;;;;;;;;;;;3.70;99.90;;;;;;5045977;28;20336;-86
2022/01/14 19:01:41;;;;;;;;;;;3.80;99.90;;;;;;5028776;28;19925;-87
2022/01/14 19:04:12;;;;;;;;;;;3.60;99.90;;;;;;5006315;28;19925;-88
2022/01/14 19:06:45;;;;;;;;;;;3.60;99.90;;;;;;5016788;28;19940;-87
2022/01/14 19:09:13;;;;;;;;;;;3.70;99.90;;;;;;5014861;28;19925;-89
2022/01/14 19:11:44;;;;;;;;;;;3.70;99.90;;;;;;5005662;28;19951;-88
2022/01/14 19:14:12;;;;;;;;;;;3.60;99.90;;;;;;5020622;28;20411;-86
2022/01/14 19:16:44;;;;;;;;;;;3.60;99.90;;;;;;5034502;28;19932;-88
2022/01/14 19:19:18;;;;;;;;;;;3.50;99.90;;;;;;5034354;28;19925;-89
2022/01/14 19:21:47;;;;;;;;;;;3.20;99.90;;;;;;5031319;28;19924;-88
2022/01/14 19:24:16;;;;;;;;;;;3.50;99.90;;;;;;5011395;28;19926;-87
2022/01/14 19:26:44;;;;;;;;;;;3.40;99.90;;;;;;5027296;28;19932;-88
2022/01/14 19:29:11;;;;;;;;;;;3.30;99.90;;;;;;5031462;28;19932;-89